Omaha, NE (68118)

2:53 AM CST on February 07, 2016 (GMT -0600)
The OmaHadland Centre Observatory | | Change Station
CLOSE
Current Station
Personal Weather Station
Location: Omaha, NE
Elevation: 1171 ft
Nearby Weather Stations

Elev 1171 ft 41.28 °N, 96.17 °W | Updated 11 seconds ago

Clear
Clear
32.0 °F
Feels Like 32 °F
N
1.1
Wind Variable Wind from WSW
Gusts 1.8 mph

Today
High -- | Low -- °F
--% Chance of Precip.
Yesterday
High -- | Low -- °F
Precip. -- in
Pressure 29.93 in
Visibility 10.0 miles
Clouds Clear
Windchill 32 °F
Dew Point Not available.
Humidity Not available.
Rainfall 0.00 in
Snow Depth Not available.
7:29 AM 5:48 PM
Waning Crescent, 2% visible
METAR KMLE 070835Z AUTO 00000KT 10SM CLR M01/M03 A2993 RMK AO2 T10061030
Pressure 29.93 in
Visibility 10.0 miles
Clouds Clear
Windchill 32 °F
Dew Point Not available.
Humidity Not available.
Rainfall 0.00 in
Snow Depth Not available.
7:29 AM 5:48 PM
Waning Crescent, 2% visible
METAR KMLE 070835Z AUTO 00000KT 10SM CLR M01/M03 A2993 RMK AO2 T10061030

10-Day Weather Forecast

Almanac

Astronomy

Feb. 07, 2016 Rise Set
Actual Time
Civil Twilight
Nautical Twilight
Astronomical Twilight
Moon
Length of Visible Light
Length of Day
Tomorrow will be .
, % of the Moon is Illuminated

Today's Extremes

State Highs State Lows

Community

WunderPhotos

Upload Photos

1,891,171 photos uploaded!

WunderBlog® & News

Nearby

Air Quality

  Air Quality AQ Index Pollutant
Not available.

Snow Depth

Station Depth Elevation

Earthquake Activity

City Distance Mag. Time & Date
Minimum magnitude displayed is 2.5.

Coastal Water Temperatures

Place Temperature

Stations

Nearby Weather Stations

Station Location Temp. Windchill Dew Point Humidity Wind Precip. Elev Updated Type
                   

Watches & Warnings

There are currently no watches in effect.